sensor_id;sensor_type;location;lat;lon;timestamp;pressure;altitude;pressure_sealevel;temperature;humidity
74218;BME280;62579;47.288;18.646;2024-01-07T00:01:57;98490.00;;;7.63;100.00
74218;BME280;62579;47.288;18.646;2024-01-07T00:04:23;98475.72;;;7.63;100.00
74218;BME280;62579;47.288;18.646;2024-01-07T00:06:48;98480.62;;;7.64;100.00
74218;BME280;62579;47.288;18.646;2024-01-07T00:09:13;98474.72;;;7.66;100.00
74218;BME280;62579;47.288;18.646;2024-01-07T00:11:39;98477.91;;;7.64;100.00
74218;BME280;62579;47.288;18.646;2024-01-07T00:14:05;98478.22;;;7.61;100.00
74218;BME280;62579;47.288;18.646;2024-01-07T00:16:30;98474.75;;;7.60;100.00
74218;BME280;62579;47.288;18.646;2024-01-07T00:18:56;98465.41;;;7.80;100.00
74218;BME280;62579;47.288;18.646;2024-01-07T00:21:21;98472.66;;;7.72;100.00
74218;BME280;62579;47.288;18.646;2024-01-07T00:23:47;98469.13;;;7.58;100.00
74218;BME280;62579;47.288;18.646;2024-01-07T00:26:12;98469.78;;;7.64;100.00
74218;BME280;62579;47.288;18.646;2024-01-07T00:28:37;98470.53;;;7.65;100.00
74218;BME280;62579;47.288;18.646;2024-01-07T00:31:03;98474.31;;;7.56;100.00
74218;BME280;62579;47.288;18.646;2024-01-07T00:33:30;98473.34;;;7.54;100.00
74218;BME280;62579;47.288;18.646;2024-01-07T00:35:56;98468.41;;;7.58;100.00
74218;BME280;62579;47.288;18.646;2024-01-07T00:38:21;98474.75;;;7.60;100.00
74218;BME280;62579;47.288;18.646;2024-01-07T00:40:46;98470.41;;;7.52;100.00
74218;BME280;62579;47.288;18.646;2024-01-07T00:43:12;98467.44;;;7.55;100.00
74218;BME280;62579;47.288;18.646;2024-01-07T00:45:37;98462.13;;;7.68;100.00
74218;BME280;62579;47.288;18.646;2024-01-07T00:48:03;98474.53;;;7.58;100.00
74218;BME280;62579;47.288;18.646;2024-01-07T00:50:28;98470.47;;;7.46;100.00
74218;BME280;62579;47.288;18.646;2024-01-07T00:52:53;98484.34;;;7.61;100.00
74218;BME280;62579;47.288;18.646;2024-01-07T00:55:19;98488.84;;;7.53;100.00
74218;BME280;62579;47.288;18.646;2024-01-07T00:57:44;98486.13;;;7.53;100.00
74218;BME280;62579;47.288;18.646;2024-01-07T01:00:10;98486.13;;;7.29;100.00
74218;BME280;62579;47.288;18.646;2024-01-07T01:02:37;98483.06;;;7.44;100.00
74218;BME280;62579;47.288;18.646;2024-01-07T01:05:02;98476.78;;;7.54;100.00
74218;BME280;62579;47.288;18.646;2024-01-07T01:07:28;98480.06;;;7.47;100.00
74218;BME280;62579;47.288;18.646;2024-01-07T01:09:53;98487.00;;;7.43;100.00
74218;BME280;62579;47.288;18.646;2024-01-07T01:12:18;98479.28;;;7.52;100.00
74218;BME280;62579;47.288;18.646;2024-01-07T01:14:44;98480.78;;;7.48;100.00
74218;BME280;62579;47.288;18.646;2024-01-07T01:17:09;98488.91;;;7.48;100.00
74218;BME280;62579;47.288;18.646;2024-01-07T01:19:34;98485.38;;;7.58;100.00
74218;BME280;62579;47.288;18.646;2024-01-07T01:22:00;98480.47;;;7.57;100.00
74218;BME280;62579;47.288;18.646;2024-01-07T01:24:25;98480.62;;;7.64;100.00
74218;BME280;62579;47.288;18.646;2024-01-07T01:26:51;98482.22;;;7.54;100.00
74218;BME280;62579;47.288;18.646;2024-01-07T01:29:16;98483.97;;;7.52;100.00
74218;BME280;62579;47.288;18.646;2024-01-07T01:31:41;98475.72;;;7.39;100.00
74218;BME280;62579;47.288;18.646;2024-01-07T01:34:08;98470.41;;;7.52;100.00
74218;BME280;62579;47.288;18.646;2024-01-07T01:36:33;98463.25;;;7.54;100.00
74218;BME280;62579;47.288;18.646;2024-01-07T01:38:59;98463.72;;;7.58;100.00
74218;BME280;62579;47.288;18.646;2024-01-07T01:41:24;98460.34;;;7.52;100.00
74218;BME280;62579;47.288;18.646;2024-01-07T01:43:49;98466.91;;;7.57;100.00
74218;BME280;62579;47.288;18.646;2024-01-07T01:46:15;98459.53;;;7.57;100.00
74218;BME280;62579;47.288;18.646;2024-01-07T01:48:41;98466.97;;;7.51;100.00
74218;BME280;62579;47.288;18.646;2024-01-07T01:51:07;98460.22;;;7.39;100.00
74218;BME280;62579;47.288;18.646;2024-01-07T01:53:33;98463.47;;;7.32;100.00
74218;BME280;62579;47.288;18.646;2024-01-07T01:56:01;98461.97;;;7.37;100.00
74218;BME280;62579;47.288;18.646;2024-01-07T01:58:28;98465.75;;;7.28;100.00
74218;BME280;62579;47.288;18.646;2024-01-07T02:00:54;98459.47;;;7.39;100.00
74218;BME280;62579;47.288;18.646;2024-01-07T02:03:20;98462.09;;;7.50;100.00
74218;BME280;62579;47.288;18.646;2024-01-07T02:05:45;98459.03;;;7.35;100.00
74218;BME280;62579;47.288;18.646;2024-01-07T02:08:11;98454.19;;;7.52;100.00
74218;BME280;62579;47.288;18.646;2024-01-07T02:10:37;98443.12;;;7.25;100.00
74218;BME280;62579;47.288;18.646;2024-01-07T02:13:05;98447.03;;;7.30;100.00
74218;BME280;62579;47.288;18.646;2024-01-07T02:15:31;98446.75;;;7.34;100.00
74218;BME280;62579;47.288;18.646;2024-01-07T02:17:56;98448.59;;;7.44;100.00
74218;BME280;62579;47.288;18.646;2024-01-07T02:20:22;98444.22;;;7.41;100.00
74218;BME280;62579;47.288;18.646;2024-01-07T02:22:47;98444.53;;;7.32;100.00
74218;BME280;62579;47.288;18.646;2024-01-07T02:25:12;98445.28;;;7.33;100.00
74218;BME280;62579;47.288;18.646;2024-01-07T02:27:38;98444.03;;;7.34;100.00
74218;BME280;62579;47.288;18.646;2024-01-07T02:30:03;98445.44;;;7.40;100.00
74218;BME280;62579;47.288;18.646;2024-01-07T02:32:29;98443.75;;;7.37;100.00
74218;BME280;62579;47.288;18.646;2024-01-07T02:34:57;98447.34;;;7.45;100.00
74218;BME280;62579;47.288;18.646;2024-01-07T02:37:22;98436.66;;;7.34;100.00
74218;BME280;62579;47.288;18.646;2024-01-07T02:39:48;98434.34;;;7.44;100.00
74218;BME280;62579;47.288;18.646;2024-01-07T02:42:13;98428.66;;;7.47;100.00
74218;BME280;62579;47.288;18.646;2024-01-07T02:44:38;98420.12;;;7.38;100.00
74218;BME280;62579;47.288;18.646;2024-01-07T02:47:04;98425.25;;;7.41;100.00
74218;BME280;62579;47.288;18.646;2024-01-07T02:49:29;98426.53;;;7.35;100.00
74218;BME280;62579;47.288;18.646;2024-01-07T02:51:55;98426.00;;;7.42;100.00
74218;BME280;62579;47.288;18.646;2024-01-07T02:54:20;98416.28;;;7.28;100.00
74218;BME280;62579;47.288;18.646;2024-01-07T02:56:45;98423.41;;;7.31;100.00
74218;BME280;62579;47.288;18.646;2024-01-07T02:59:11;98421.66;;;7.33;100.00
74218;BME280;62579;47.288;18.646;2024-01-07T03:01:36;98423.63;;;7.33;100.00
74218;BME280;62579;47.288;18.646;2024-01-07T03:04:06;98422.94;;;7.26;100.00
74218;BME280;62579;47.288;18.646;2024-01-07T03:06:33;98428.53;;;7.34;100.00
74218;BME280;62579;47.288;18.646;2024-01-07T03:08:58;98423.50;;;7.19;100.00
74218;BME280;62579;47.288;18.646;2024-01-07T03:11:23;98420.22;;;7.26;100.00
74218;BME280;62579;47.288;18.646;2024-01-07T03:13:49;98423.69;;;7.27;100.00
74218;BME280;62579;47.288;18.646;2024-01-07T03:16:24;98419.78;;;7.22;100.00
74218;BME280;62579;47.288;18.646;2024-01-07T03:18:50;98418.22;;;7.33;100.00
74218;BME280;62579;47.288;18.646;2024-01-07T03:21:17;98414.50;;;7.36;100.00
74218;BME280;62579;47.288;18.646;2024-01-07T03:23:43;98418.03;;;7.25;100.00
74218;BME280;62579;47.288;18.646;2024-01-07T03:26:09;98413.22;;;7.18;100.00
74218;BME280;62579;47.288;18.646;2024-01-07T03:28:34;98421.94;;;7.30;100.00
74218;BME280;62579;47.288;18.646;2024-01-07T03:31:05;98418.47;;;7.29;100.00
74218;BME280;62579;47.288;18.646;2024-01-07T03:33:30;98419.78;;;7.22;100.00
74218;BME280;62579;47.288;18.646;2024-01-07T03:35:56;98420.28;;;7.21;100.00
74218;BME280;62579;47.288;18.646;2024-01-07T03:38:21;98420.22;;;7.26;100.00
74218;BME280;62579;47.288;18.646;2024-01-07T03:40:46;98420.81;;;7.19;100.00
74218;BME280;62579;47.288;18.646;2024-01-07T03:43:12;98419.34;;;7.18;100.00
74218;BME280;62579;47.288;18.646;2024-01-07T03:45:37;98422.56;;;7.17;100.00
74218;BME280;62579;47.288;18.646;2024-01-07T03:48:02;98420.22;;;7.26;100.00
74218;BME280;62579;47.288;18.646;2024-01-07T03:50:28;98422.94;;;7.26;100.00
74218;BME280;62579;47.288;18.646;2024-01-07T03:52:53;98419.34;;;7.18;100.00
74218;BME280;62579;47.288;18.646;2024-01-07T03:55:19;98424.75;;;7.18;100.00
74218;BME280;62579;47.288;18.646;2024-01-07T03:57:44;98415.97;;;7.12;100.00
74218;BME280;62579;47.288;18.646;2024-01-07T04:00:10;98418.66;;;7.12;100.00
74218;BME280;62579;47.288;18.646;2024-01-07T04:02:35;98420.63;;;7.12;100.00
74218;BME280;62579;47.288;18.646;2024-01-07T04:05:00;98424.56;;;7.11;100.00
74218;BME280;62579;47.288;18.646;2024-01-07T04:07:26;98421.25;;;7.23;100.00
74218;BME280;62579;47.288;18.646;2024-01-07T04:09:51;98423.41;;;7.06;100.00
74218;BME280;62579;47.288;18.646;2024-01-07T04:12:16;98432.69;;;7.11;100.00
74218;BME280;62579;47.288;18.646;2024-01-07T04:14:43;98426.91;;;7.25;100.00
74218;BME280;62579;47.288;18.646;2024-01-07T04:17:08;98425.03;;;7.15;100.00
74218;BME280;62579;47.288;18.646;2024-01-07T04:19:36;98423.25;;;7.23;100.00
74218;BME280;62579;47.288;18.646;2024-01-07T04:22:02;98426.50;;;7.16;100.00
74218;BME280;62579;47.288;18.646;2024-01-07T04:24:27;98425.09;;;7.09;100.00
74218;BME280;62579;47.288;18.646;2024-01-07T04:26:53;98425.84;;;7.10;100.00
74218;BME280;62579;47.288;18.646;2024-01-07T04:29:19;98429.16;;;7.21;100.00
74218;BME280;62579;47.288;18.646;2024-01-07T04:31:44;98423.28;;;7.17;100.00
74218;BME280;62579;47.288;18.646;2024-01-07T04:34:09;98422.81;;;7.13;100.00
74218;BME280;62579;47.288;18.646;2024-01-07T04:36:35;98429.53;;;7.07;100.00
74218;BME280;62579;47.288;18.646;2024-01-07T04:39:00;98427.62;;;7.02;100.00
74218;BME280;62579;47.288;18.646;2024-01-07T04:41:26;98429.34;;;6.99;100.00
74218;BME280;62579;47.288;18.646;2024-01-07T04:43:51;98432.00;;;7.05;100.00
74218;BME280;62579;47.288;18.646;2024-01-07T04:46:17;98438.78;;;7.17;100.00
74218;BME280;62579;47.288;18.646;2024-01-07T04:48:43;98437.41;;;7.05;100.00
74218;BME280;62579;47.288;18.646;2024-01-07T04:51:08;98429.50;;;7.12;100.00
74218;BME280;62579;47.288;18.646;2024-01-07T04:53:33;98433.53;;;7.00;100.00
74218;BME280;62579;47.288;18.646;2024-01-07T04:55:59;98432.91;;;7.13;100.00
74218;BME280;62579;47.288;18.646;2024-01-07T04:58:24;98431.94;;;7.10;100.00
74218;BME280;62579;47.288;18.646;2024-01-07T05:00:50;98432.06;;;6.99;100.00
74218;BME280;62579;47.288;18.646;2024-01-07T05:03:15;98444.28;;;7.06;100.00
74218;BME280;62579;47.288;18.646;2024-01-07T05:05:40;98432.06;;;6.99;100.00
74218;BME280;62579;47.288;18.646;2024-01-07T05:08:06;98436.50;;;6.97;100.00
74218;BME280;62579;47.288;18.646;2024-01-07T05:10:32;98436.50;;;6.97;100.00
74218;BME280;62579;47.288;18.646;2024-01-07T05:12:57;98438.25;;;6.94;100.00
74218;BME280;62579;47.288;18.646;2024-01-07T05:15:22;98433.13;;;6.91;100.00
74218;BME280;62579;47.288;18.646;2024-01-07T05:17:48;98437.06;;;6.90;100.00
74218;BME280;62579;47.288;18.646;2024-01-07T05:20:15;98441.97;;;6.91;100.00
74218;BME280;62579;47.288;18.646;2024-01-07T05:22:40;98436.50;;;6.97;100.00
74218;BME280;62579;47.288;18.646;2024-01-07T05:25:06;98432.16;;;6.88;100.00
74218;BME280;62579;47.288;18.646;2024-01-07T05:27:31;98435.38;;;6.87;100.00
74218;BME280;62579;47.288;18.646;2024-01-07T05:29:57;98437.63;;;6.83;100.00
74218;BME280;62579;47.288;18.646;2024-01-07T05:32:22;98432.88;;;6.89;100.00
74218;BME280;62579;47.288;18.646;2024-01-07T05:34:48;98436.06;;;6.93;100.00
74218;BME280;62579;47.288;18.646;2024-01-07T05:37:14;98433.13;;;6.91;100.00
74218;BME280;62579;47.288;18.646;2024-01-07T05:39:39;98439.31;;;6.86;100.00
74218;BME280;62579;47.288;18.646;2024-01-07T05:42:04;98449.34;;;6.91;100.00
74218;BME280;62579;47.288;18.646;2024-01-07T05:44:30;98442.22;;;6.93;100.00
74218;BME280;62579;47.288;18.646;2024-01-07T05:46:55;98446.59;;;6.96;100.00
74218;BME280;62579;47.288;18.646;2024-01-07T05:49:20;98436.50;;;6.97;100.00
74218;BME280;62579;47.288;18.646;2024-01-07T05:51:46;98440.72;;;6.92;100.00
74218;BME280;62579;47.288;18.646;2024-01-07T05:54:11;98441.72;;;6.89;100.00
74218;BME280;62579;47.288;18.646;2024-01-07T05:56:41;98443.00;;;6.88;100.00
74218;BME280;62579;47.288;18.646;2024-01-07T05:59:07;98446.75;;;6.80;100.00
74218;BME280;62579;47.288;18.646;2024-01-07T06:01:32;98442.28;;;6.82;100.00
74218;BME280;62579;47.288;18.646;2024-01-07T06:03:57;98447.44;;;6.86;100.00
74218;BME280;62579;47.288;18.646;2024-01-07T06:06:23;98448.94;;;6.81;100.00
74218;BME280;62579;47.288;18.646;2024-01-07T06:08:48;98441.09;;;6.78;100.00
74218;BME280;62579;47.288;18.646;2024-01-07T06:11:14;98446.22;;;6.81;100.00
74218;BME280;62579;47.288;18.646;2024-01-07T06:13:45;98444.72;;;6.86;100.00
74218;BME280;62579;47.288;18.646;2024-01-07T06:16:11;98449.56;;;6.93;100.00
74218;BME280;62579;47.288;18.646;2024-01-07T06:18:36;98446.97;;;6.82;100.00
74218;BME280;62579;47.288;18.646;2024-01-07T06:21:01;98440.38;;;6.77;100.00
74218;BME280;62579;47.288;18.646;2024-01-07T06:23:27;98436.00;;;6.69;100.00
74218;BME280;62579;47.288;18.646;2024-01-07T06:25:53;98445.53;;;6.75;100.00
74218;BME280;62579;47.288;18.646;2024-01-07T06:28:18;98451.97;;;6.72;100.00
74218;BME280;62579;47.288;18.646;2024-01-07T06:30:43;98451.97;;;6.72;100.00
74218;BME280;62579;47.288;18.646;2024-01-07T06:33:09;98451.94;;;6.78;100.00
74218;BME280;62579;47.288;18.646;2024-01-07T06:35:34;98456.63;;;6.72;100.00
74218;BME280;62579;47.288;18.646;2024-01-07T06:38:00;98458.00;;;6.84;100.00
74218;BME280;62579;47.288;18.646;2024-01-07T06:40:25;98452.88;;;6.80;100.00
74218;BME280;62579;47.288;18.646;2024-01-07T06:42:51;98465.88;;;6.82;100.00
74218;BME280;62579;47.288;18.646;2024-01-07T06:45:17;98468.06;;;6.83;100.00
74218;BME280;62579;47.288;18.646;2024-01-07T06:47:42;98473.03;;;6.79;100.00
74218;BME280;62579;47.288;18.646;2024-01-07T06:50:09;98468.84;;;6.78;100.00
74218;BME280;62579;47.288;18.646;2024-01-07T06:52:35;98476.19;;;6.83;100.00
74218;BME280;62579;47.288;18.646;2024-01-07T06:55:01;98480.38;;;6.84;100.00
74218;BME280;62579;47.288;18.646;2024-01-07T06:57:26;98481.66;;;6.78;100.00
74218;BME280;62579;47.288;18.646;2024-01-07T06:59:52;98480.94;;;6.77;100.00
74218;BME280;62579;47.288;18.646;2024-01-07T07:02:20;98486.16;;;6.70;100.00
74218;BME280;62579;47.288;18.646;2024-01-07T07:04:45;98493.31;;;6.61;100.00
74218;BME280;62579;47.288;18.646;2024-01-07T07:07:11;98482.78;;;6.58;100.00
74218;BME280;62579;47.288;18.646;2024-01-07T07:09:36;98491.37;;;6.56;100.00
74218;BME280;62579;47.288;18.646;2024-01-07T07:12:01;98493.25;;;6.32;100.00
74218;BME280;62579;47.288;18.646;2024-01-07T07:14:27;98488.88;;;6.23;100.00
74218;BME280;62579;47.288;18.646;2024-01-07T07:16:53;98501.16;;;6.19;100.00
74218;BME280;62579;47.288;18.646;2024-01-07T07:19:18;98501.41;;;6.21;100.00
74218;BME280;62579;47.288;18.646;2024-01-07T07:21:43;98502.44;;;6.12;100.00
74218;BME280;62579;47.288;18.646;2024-01-07T07:24:09;98504.66;;;6.02;100.00
74218;BME280;62579;47.288;18.646;2024-01-07T07:26:35;98500.28;;;5.94;100.00
74218;BME280;62579;47.288;18.646;2024-01-07T07:29:01;98502.72;;;5.97;100.00
74218;BME280;62579;47.288;18.646;2024-01-07T07:31:27;98503.25;;;5.90;100.00
74218;BME280;62579;47.288;18.646;2024-01-07T07:33:52;98510.88;;;5.81;100.00
74218;BME280;62579;47.288;18.646;2024-01-07T07:36:18;98508.44;;;5.72;100.00
74218;BME280;62579;47.288;18.646;2024-01-07T07:38:44;98517.00;;;5.70;100.00
74218;BME280;62579;47.288;18.646;2024-01-07T07:41:09;98511.38;;;5.74;100.00
74218;BME280;62579;47.288;18.646;2024-01-07T07:43:35;98513.34;;;5.68;100.00
74218;BME280;62579;47.288;18.646;2024-01-07T07:46:00;98510.59;;;5.79;100.00
74218;BME280;62579;47.288;18.646;2024-01-07T07:48:28;98519.00;;;5.64;100.00
74218;BME280;62579;47.288;18.646;2024-01-07T07:50:54;98520.47;;;5.54;100.00
74218;BME280;62579;47.288;18.646;2024-01-07T07:53:19;98509.94;;;5.56;100.00
74218;BME280;62579;47.288;18.646;2024-01-07T07:55:44;98521.50;;;5.51;100.00
74218;BME280;62579;47.288;18.646;2024-01-07T07:58:10;98522.69;;;5.50;100.00
74218;BME280;62579;47.288;18.646;2024-01-07T08:00:35;98523.69;;;5.41;100.00
74218;BME280;62579;47.288;18.646;2024-01-07T08:03:00;98523.22;;;5.37;100.00
74218;BME280;62579;47.288;18.646;2024-01-07T08:05:26;98530.06;;;5.38;100.00
74218;BME280;62579;47.288;18.646;2024-01-07T08:07:51;98530.56;;;5.37;100.00
74218;BME280;62579;47.288;18.646;2024-01-07T08:10:16;98533.75;;;5.41;100.00
74218;BME280;62579;47.288;18.646;2024-01-07T08:12:42;98539.88;;;5.30;100.00
74218;BME280;62579;47.288;18.646;2024-01-07T08:15:07;98537.44;;;5.27;100.00
74218;BME280;62579;47.288;18.646;2024-01-07T08:17:33;98539.41;;;5.21;100.00
74218;BME280;62579;47.288;18.646;2024-01-07T08:19:58;98536.72;;;5.26;100.00
74218;BME280;62579;47.288;18.646;2024-01-07T08:22:25;98541.38;;;5.15;100.00
74218;BME280;62579;47.288;18.646;2024-01-07T08:24:50;98544.06;;;5.15;100.00
74218;BME280;62579;47.288;18.646;2024-01-07T08:27:16;98547.72;;;5.01;100.00
74218;BME280;62579;47.288;18.646;2024-01-07T08:29:44;98540.88;;;5.11;100.00
74218;BME280;62579;47.288;18.646;2024-01-07T08:32:10;98548.22;;;4.99;100.00
74218;BME280;62579;47.288;18.646;2024-01-07T08:34:37;98545.28;;;4.86;100.00
74218;BME280;62579;47.288;18.646;2024-01-07T08:37:03;98548.44;;;4.84;100.00
74218;BME280;62579;47.288;18.646;2024-01-07T08:39:28;98552.09;;;4.81;100.00
74218;BME280;62579;47.288;18.646;2024-01-07T08:41:54;98550.41;;;4.78;100.00
74218;BME280;62579;47.288;18.646;2024-01-07T08:44:19;98555.53;;;4.76;100.00
74218;BME280;62579;47.288;18.646;2024-01-07T08:46:45;98551.59;;;4.61;100.00
74218;BME280;62579;47.288;18.646;2024-01-07T08:49:11;98556.50;;;4.73;100.00
74218;BME280;62579;47.288;18.646;2024-01-07T08:51:36;98557.50;;;4.65;100.00
74218;BME280;62579;47.288;18.646;2024-01-07T08:54:02;98561.41;;;4.69;100.00
74218;BME280;62579;47.288;18.646;2024-01-07T08:56:28;98566.78;;;4.64;100.00
74218;BME280;62579;47.288;18.646;2024-01-07T08:58:53;98567.28;;;4.68;100.00
74218;BME280;62579;47.288;18.646;2024-01-07T09:01:19;98564.06;;;4.58;100.00
74218;BME280;62579;47.288;18.646;2024-01-07T09:03:44;98564.06;;;4.53;100.00
74218;BME280;62579;47.288;18.646;2024-01-07T09:06:09;98573.38;;;4.52;100.00
74218;BME280;62579;47.288;18.646;2024-01-07T09:08:35;98572.62;;;4.51;100.00
74218;BME280;62579;47.288;18.646;2024-01-07T09:11:03;98576.53;;;4.50;100.00
74218;BME280;62579;47.288;18.646;2024-01-07T09:13:29;98575.78;;;4.50;100.00
74218;BME280;62579;47.288;18.646;2024-01-07T09:15:54;98576.06;;;4.46;100.00
74218;BME280;62579;47.288;18.646;2024-01-07T09:18:20;98585.84;;;4.55;100.00
74218;BME280;62579;47.288;18.646;2024-01-07T09:20:45;98578.00;;;4.46;100.00
74218;BME280;62579;47.288;18.646;2024-01-07T09:23:11;98583.13;;;4.49;100.00
74218;BME280;62579;47.288;18.646;2024-01-07T09:25:37;98596.31;;;4.36;100.00
74218;BME280;62579;47.288;18.646;2024-01-07T09:28:02;98578.44;;;4.33;100.00
74218;BME280;62579;47.288;18.646;2024-01-07T09:30:30;98585.81;;;4.38;100.00
74218;BME280;62579;47.288;18.646;2024-01-07T09:32:56;98580.16;;;4.36;100.00
74218;BME280;62579;47.288;18.646;2024-01-07T09:35:21;98587.97;;;4.29;100.00
74218;BME280;62579;47.288;18.646;2024-01-07T09:37:47;98598.50;;;4.27;100.00
74218;BME280;62579;47.288;18.646;2024-01-07T09:40:12;98588.34;;;4.05;100.00
74218;BME280;62579;47.288;18.646;2024-01-07T09:42:42;98597.63;;;4.04;100.00
74218;BME280;62579;47.288;18.646;2024-01-07T09:45:07;98593.47;;;4.03;100.00
74218;BME280;62579;47.288;18.646;2024-01-07T09:47:34;98583.16;;;3.96;100.00
74218;BME280;62579;47.288;18.646;2024-01-07T09:50:00;98589.69;;;3.84;100.00
74218;BME280;62579;47.288;18.646;2024-01-07T09:52:25;98593.34;;;3.81;100.00
74218;BME280;62579;47.288;18.646;2024-01-07T09:54:54;98580.63;;;3.81;100.00
74218;BME280;62579;47.288;18.646;2024-01-07T09:57:21;98588.72;;;3.81;100.00
74218;BME280;62579;47.288;18.646;2024-01-07T09:59:46;98591.66;;;3.83;100.00
74218;BME280;62579;47.288;18.646;2024-01-07T10:02:12;98590.87;;;3.77;100.00
74218;BME280;62579;47.288;18.646;2024-01-07T10:04:37;98600.88;;;3.77;100.00
74218;BME280;62579;47.288;18.646;2024-01-07T10:07:03;98585.44;;;3.72;100.00
74218;BME280;62579;47.288;18.646;2024-01-07T10:09:30;98591.78;;;3.63;100.00
74218;BME280;62579;47.288;18.646;2024-01-07T10:11:57;98584.88;;;3.56;100.00
74218;BME280;62579;47.288;18.646;2024-01-07T10:14:23;98582.87;;;3.51;100.00
74218;BME280;62579;47.288;18.646;2024-01-07T10:16:50;98583.97;;;3.65;100.00
74218;BME280;62579;47.288;18.646;2024-01-07T10:19:25;98585.16;;;3.64;100.00
74218;BME280;62579;47.288;18.646;2024-01-07T10:22:00;98587.81;;;3.58;100.00
74218;BME280;62579;47.288;18.646;2024-01-07T10:24:26;98586.53;;;3.48;100.00
74218;BME280;62579;47.288;18.646;2024-01-07T10:26:52;98584.34;;;3.52;100.00
74218;BME280;62579;47.288;18.646;2024-01-07T10:29:17;98598.03;;;3.49;100.00
74218;BME280;62579;47.288;18.646;2024-01-07T10:31:43;98591.13;;;3.42;100.00
74218;BME280;62579;47.288;18.646;2024-01-07T10:34:13;98584.69;;;3.34;100.00
74218;BME280;62579;47.288;18.646;2024-01-07T10:36:39;98583.97;;;3.34;100.00
74218;BME280;62579;47.288;18.646;2024-01-07T10:39:05;98575.44;;;3.35;100.00
74218;BME280;62579;47.288;18.646;2024-01-07T10:41:31;98591.03;;;3.31;100.00
74218;BME280;62579;47.288;18.646;2024-01-07T10:43:57;98585.13;;;3.27;100.00
74218;BME280;62579;47.288;18.646;2024-01-07T10:46:23;98581.47;;;3.25;100.00
74218;BME280;62579;47.288;18.646;2024-01-07T10:48:58;98578.97;;;3.21;100.00
74218;BME280;62579;47.288;18.646;2024-01-07T10:51:24;98584.78;;;3.14;100.00
74218;BME280;62579;47.288;18.646;2024-01-07T10:53:52;98573.13;;;3.23;100.00
74218;BME280;62579;47.288;18.646;2024-01-07T10:56:23;98588.16;;;3.09;100.00
74218;BME280;62579;47.288;18.646;2024-01-07T10:58:52;98575.50;;;3.15;100.00
74218;BME280;62579;47.288;18.646;2024-01-07T11:01:19;98580.41;;;3.17;100.00
74218;BME280;62579;47.288;18.646;2024-01-07T11:04:08;98576.19;;;3.10;100.00
74218;BME280;62579;47.288;18.646;2024-01-07T11:06:46;98579.22;;;3.23;100.00
74218;BME280;62579;47.288;18.646;2024-01-07T11:09:39;98592.06;;;3.08;100.00
74218;BME280;62579;47.288;18.646;2024-01-07T11:12:10;98576.63;;;3.03;100.00
74218;BME280;62579;47.288;18.646;2024-01-07T11:14:41;98579.31;;;3.03;100.00
74218;BME280;62579;47.288;18.646;2024-01-07T11:17:11;98575.09;;;2.96;100.00
74218;BME280;62579;47.288;18.646;2024-01-07T11:19:37;98580.25;;;3.00;100.00
74218;BME280;62579;47.288;18.646;2024-01-07T11:22:25;98578.00;;;2.93;100.00
74218;BME280;62579;47.288;18.646;2024-01-07T11:24:53;98569.50;;;3.00;100.00
74218;BME280;62579;47.288;18.646;2024-01-07T11:27:21;98576.25;;;2.90;100.00
74218;BME280;62579;47.288;18.646;2024-01-07T11:29:57;98574.34;;;2.96;100.00
74218;BME280;62579;47.288;18.646;2024-01-07T11:32:24;98575.84;;;2.97;100.00
74218;BME280;62579;47.288;18.646;2024-01-07T11:34:53;98584.03;;;2.88;100.00
74218;BME280;62579;47.288;18.646;2024-01-07T11:37:21;98577.66;;;2.85;100.00
74218;BME280;62579;47.288;18.646;2024-01-07T11:39:48;98571.78;;;2.81;100.00
74218;BME280;62579;47.288;18.646;2024-01-07T11:42:15;98579.59;;;2.79;100.00
74218;BME280;62579;47.288;18.646;2024-01-07T11:44:48;98583.97;;;2.77;100.00
74218;BME280;62579;47.288;18.646;2024-01-07T11:47:16;98590.03;;;2.77;100.00
74218;BME280;62579;47.288;18.646;2024-01-07T11:49:42;98572.41;;;2.71;100.00
74218;BME280;62579;47.288;18.646;2024-01-07T11:52:09;98585.03;;;2.65;100.00
74218;BME280;62579;47.288;18.646;2024-01-07T11:54:37;98577.47;;;2.63;100.00
74218;BME280;62579;47.288;18.646;2024-01-07T11:57:03;98580.88;;;2.64;100.00
74218;BME280;62579;47.288;18.646;2024-01-07T11:59:29;98580.16;;;2.63;100.00
74218;BME280;62579;47.288;18.646;2024-01-07T12:01:54;98583.66;;;2.49;100.00
74218;BME280;62579;47.288;18.646;2024-01-07T12:04:20;98578.81;;;2.53;100.00
74218;BME280;62579;47.288;18.646;2024-01-07T12:06:46;98588.09;;;2.52;100.00
74218;BME280;62579;47.288;18.646;2024-01-07T12:09:12;98593.25;;;2.35;100.00
74218;BME280;62579;47.288;18.646;2024-01-07T12:11:39;98587.28;;;2.46;100.00
74218;BME280;62579;47.288;18.646;2024-01-07T12:14:06;98596.94;;;2.38;100.00
74218;BME280;62579;47.288;18.646;2024-01-07T12:16:31;98593.59;;;2.43;100.00
74218;BME280;62579;47.288;18.646;2024-01-07T12:18:57;98599.63;;;2.38;100.00
74218;BME280;62579;47.288;18.646;2024-01-07T12:21:22;98590.97;;;2.28;100.00
74218;BME280;62579;47.288;18.646;2024-01-07T12:23:49;98598.47;;;2.24;100.00
74218;BME280;62579;47.288;18.646;2024-01-07T12:26:19;98593.38;;;2.26;100.00
74218;BME280;62579;47.288;18.646;2024-01-07T12:28:45;98606.09;;;2.26;100.00
74218;BME280;62579;47.288;18.646;2024-01-07T12:31:17;98602.31;;;2.18;100.00
74218;BME280;62579;47.288;18.646;2024-01-07T12:33:42;98594.38;;;2.09;100.00
74218;BME280;62579;47.288;18.646;2024-01-07T12:36:07;98602.62;;;2.05;100.00
74218;BME280;62579;47.288;18.646;2024-01-07T12:38:33;98600.56;;;2.15;100.00
74218;BME280;62579;47.288;18.646;2024-01-07T12:40:58;98604.94;;;2.12;100.00
74218;BME280;62579;47.288;18.646;2024-01-07T12:43:24;98595.31;;;2.06;100.00
74218;BME280;62579;47.288;18.646;2024-01-07T12:45:50;98596.00;;;2.01;100.00